Time;durP1;ratioP1;P1;durP2;ratioP2;P2;SDS_P1;SDS_P2;PMS_P1;PMS_P2;Temp;Humidity;BMP_temperature;BMP_pressure;BME280_temperature;BME280_humidity;BME280_pressure;Samples;Min_cycle;Max_cycle;Signal;HPM_P1;HPM_P2
2023/06/27 00:02:58;;;;;;;;;;;;;;;;;;5550465;28;10000751;-72
2023/06/27 00:06:00;;;;;;;;;;;;;;;;;;6259295;28;19963;-71
2023/06/27 00:09:00;;;;;;;;;;;;;;;;;;6260588;28;19916;-72
2023/06/27 00:12:01;;;;;;;;;;;;;;;;;;6254472;28;20058;-71
2023/06/27 00:15:01;;;;;;;;;;;;;;;;;;6255463;28;19912;-70
2023/06/27 00:18:07;;;;;;;;;;;;;;;;;;6257502;28;19909;-71
2023/06/27 00:21:07;;;;;;;;;;;;;;;;;;6252236;28;19977;-71
2023/06/27 00:24:07;;;;;;;;;;;;;;;;;;6256466;28;20347;-70
2023/06/27 00:27:07;;;;;;;;;;;;;;;;;;6255416;28;19908;-71
2023/06/27 00:30:08;;;;;;;;;;;;;;;;;;6255758;28;20343;-70
2023/06/27 00:33:09;;;;;;;;;;;;;;;;;;6257958;28;19908;-71
2023/06/27 00:36:12;;;;;;;;;;;;;;;;;;6255476;28;20511;-71
2023/06/27 00:39:12;;;;;;;;;;;;;;;;;;6252116;28;19909;-70
2023/06/27 00:42:12;;;;;;;;;;;;;;;;;;6257352;28;19909;-70
2023/06/27 00:45:12;;;;;;;;;;;;;;;;;;6256044;28;19913;-70
2023/06/27 00:48:13;;;;;;;;;;;;;;;;;;6254137;28;19970;-71
2023/06/27 00:51:13;;;;;;;;;;;;;;;;;;6247653;28;19912;-71
2023/06/27 00:54:13;;;;;;;;;;;;;;;;;;6247862;28;19934;-71
2023/06/27 00:57:13;;;;;;;;;;;;;;;;;;6253159;28;19916;-71
2023/06/27 01:00:13;;;;;;;;;;;;;;;;;;6245384;28;19905;-71
2023/06/27 01:03:13;;;;;;;;;;;;;;;;;;6260488;28;19912;-69
2023/06/27 01:06:14;;;;;;;;;;;;;;;;;;6249644;28;19919;-70
2023/06/27 01:09:15;;;;;;;;;;;;;;;;;;6252066;28;19912;-71
2023/06/27 01:12:15;;;;;;;;;;;;;;;;;;6249752;28;19912;-70
2023/06/27 01:15:15;;;;;;;;;;;;;;;;;;6257676;28;19916;-71
2023/06/27 01:18:15;;;;;;;;;;;;;;;;;;6254342;28;19927;-71
2023/06/27 01:21:15;;;;;;;;;;;;;;;;;;6249049;28;19905;-72
2023/06/27 01:24:16;;;;;;;;;;;;;;;;;;6243371;28;19913;-71
2023/06/27 01:27:16;;;;;;;;;;;;;;;;;;6254872;28;19916;-71
2023/06/27 01:30:17;;;;;;;;;;;;;;;;;;6257289;28;19964;-71
2023/06/27 01:33:17;;;;;;;;;;;;;;;;;;6250999;28;19908;-71
2023/06/27 01:36:18;;;;;;;;;;;;;;;;;;6253659;28;20297;-73
2023/06/27 01:39:18;;;;;;;;;;;;;;;;;;6252541;28;19935;-72
2023/06/27 01:42:18;;;;;;;;;;;;;;;;;;6249823;28;19909;-72
2023/06/27 01:45:18;;;;;;;;;;;;;;;;;;6257548;28;19982;-71
2023/06/27 01:48:19;;;;;;;;;;;;;;;;;;6252293;28;19929;-71
2023/06/27 01:51:19;;;;;;;;;;;;;;;;;;6254597;28;19912;-71
2023/06/27 01:54:19;;;;;;;;;;;;;;;;;;6256953;28;20326;-71
2023/06/27 01:57:19;;;;;;;;;;;;;;;;;;6254726;28;19940;-72
2023/06/27 02:00:19;;;;;;;;;;;;;;;;;;6253887;28;20341;-70
2023/06/27 02:03:20;;;;;;;;;;;;;;;;;;5902631;28;10000388;-71
2023/06/27 02:06:20;;;;;;;;;;;;;;;;;;6253235;28;19917;-71
2023/06/27 02:09:20;;;;;;;;;;;;;;;;;;6259558;28;19924;-71
2023/06/27 02:12:20;;;;;;;;;;;;;;;;;;6247271;28;19989;-71
2023/06/27 02:15:20;;;;;;;;;;;;;;;;;;6251193;28;19916;-71
2023/06/27 02:18:21;;;;;;;;;;;;;;;;;;6255394;28;19943;-73
2023/06/27 02:21:21;;;;;;;;;;;;;;;;;;6253480;28;19909;-71
2023/06/27 02:24:21;;;;;;;;;;;;;;;;;;6252300;28;20239;-71
2023/06/27 02:27:21;;;;;;;;;;;;;;;;;;6256952;28;20029;-71
2023/06/27 02:30:21;;;;;;;;;;;;;;;;;;6253372;28;20003;-70
2023/06/27 02:33:21;;;;;;;;;;;;;;;;;;6255362;28;19916;-70
2023/06/27 02:36:22;;;;;;;;;;;;;;;;;;6255412;28;20320;-70
2023/06/27 02:39:22;;;;;;;;;;;;;;;;;;6252915;28;19923;-70
2023/06/27 02:42:22;;;;;;;;;;;;;;;;;;6254600;28;19917;-70
2023/06/27 02:45:23;;;;;;;;;;;;;;;;;;6249430;28;19959;-71
2023/06/27 02:48:24;;;;;;;;;;;;;;;;;;6251725;28;19908;-71
2023/06/27 02:51:24;;;;;;;;;;;;;;;;;;6255892;28;19992;-71
2023/06/27 02:54:24;;;;;;;;;;;;;;;;;;6252205;28;19924;-71
2023/06/27 02:57:24;;;;;;;;;;;;;;;;;;6258196;28;19963;-71
2023/06/27 03:00:24;;;;;;;;;;;;;;;;;;6251188;28;19913;-73
2023/06/27 03:03:25;;;;;;;;;;;;;;;;;;6252878;28;20133;-72
2023/06/27 03:06:25;;;;;;;;;;;;;;;;;;6248679;28;19908;-71
2023/06/27 03:09:25;;;;;;;;;;;;;;;;;;6260141;28;19916;-71
2023/06/27 03:12:25;;;;;;;;;;;;;;;;;;6254161;28;19918;-69
2023/06/27 03:15:25;;;;;;;;;;;;;;;;;;6246731;28;20539;-69
2023/06/27 03:18:26;;;;;;;;;;;;;;;;;;6251136;28;20432;-69
2023/06/27 03:21:26;;;;;;;;;;;;;;;;;;6246383;28;19913;-69
2023/06/27 03:24:26;;;;;;;;;;;;;;;;;;6257827;28;20003;-69
2023/06/27 03:27:26;;;;;;;;;;;;;;;;;;6242246;28;19998;-70
2023/06/27 03:31:01;;;;;;;;;;;;;;;;;;6341412;27;20007;-72
2023/06/27 03:34:01;;;;;;;;;;;;;;;;;;6312214;28;19912;-72
2023/06/27 03:37:01;;;;;;;;;;;;;;;;;;6303392;28;20269;-71
2023/06/27 03:40:02;;;;;;;;;;;;;;;;;;6311292;28;20292;-71
2023/06/27 03:43:02;;;;;;;;;;;;;;;;;;6311305;28;20017;-71
2023/06/27 03:46:03;;;;;;;;;;;;;;;;;;6301243;28;21794;-71
2023/06/27 03:49:03;;;;;;;;;;;;;;;;;;6305930;28;20322;-71
2023/06/27 03:52:03;;;;;;;;;;;;;;;;;;6309742;28;20292;-71
2023/06/27 03:55:03;;;;;;;;;;;;;;;;;;6311795;28;19913;-72
2023/06/27 03:58:04;;;;;;;;;;;;;;;;;;6300683;28;19912;-70
2023/06/27 04:01:04;;;;;;;;;;;;;;;;;;6302639;28;19920;-71
2023/06/27 04:04:04;;;;;;;;;;;;;;;;;;6295255;28;20527;-71
2023/06/27 04:07:04;;;;;;;;;;;;;;;;;;6297018;28;19912;-70
2023/06/27 04:10:04;;;;;;;;;;;;;;;;;;6303825;28;19927;-71
2023/06/27 04:13:05;;;;;;;;;;;;;;;;;;6293963;28;20008;-71
2023/06/27 04:16:05;;;;;;;;;;;;;;;;;;6296694;28;19913;-70
2023/06/27 04:19:05;;;;;;;;;;;;;;;;;;6295856;28;20379;-71
2023/06/27 04:22:05;;;;;;;;;;;;;;;;;;6299691;28;19951;-70
2023/06/27 04:25:08;;;;;;;;;;;;;;;;;;6300104;28;20362;-72
2023/06/27 04:28:08;;;;;;;;;;;;;;;;;;6300272;28;19913;-72
2023/06/27 04:31:08;;;;;;;;;;;;;;;;;;6323475;28;19935;-71
2023/06/27 04:34:08;;;;;;;;;;;;;;;;;;6301046;28;19912;-71
2023/06/27 04:37:08;;;;;;;;;;;;;;;;;;6327180;28;19928;-71
2023/06/27 04:40:10;;;;;;;;;;;;;;;;;;6301396;28;19913;-72
2023/06/27 04:43:11;;;;;;;;;;;;;;;;;;6306949;28;19964;-71
2023/06/27 04:46:11;;;;;;;;;;;;;;;;;;6290134;28;19916;-71
2023/06/27 04:49:11;;;;;;;;;;;;;;;;;;6290836;28;19932;-73
2023/06/27 04:52:11;;;;;;;;;;;;;;;;;;6308618;28;20332;-70
2023/06/27 04:55:12;;;;;;;;;;;;;;;;;;6283903;28;20028;-70
2023/06/27 04:58:12;;;;;;;;;;;;;;;;;;6281908;28;20564;-71
2023/06/27 05:01:13;;;;;;;;;;;;;;;;;;6303377;28;19939;-71
2023/06/27 05:04:13;;;;;;;;;;;;;;;;;;6289755;28;20061;-71
2023/06/27 05:07:13;;;;;;;;;;;;;;;;;;6304822;28;19920;-71
2023/06/27 05:10:13;;;;;;;;;;;;;;;;;;6306415;28;19939;-71
2023/06/27 05:13:14;;;;;;;;;;;;;;;;;;6313099;28;19915;-70
2023/06/27 05:16:14;;;;;;;;;;;;;;;;;;6292574;28;19916;-72
2023/06/27 05:19:15;;;;;;;;;;;;;;;;;;6312645;28;19923;-72
2023/06/27 05:22:15;;;;;;;;;;;;;;;;;;6305645;28;19955;-72
2023/06/27 05:25:15;;;;;;;;;;;;;;;;;;6294325;28;20461;-71
2023/06/27 05:28:15;;;;;;;;;;;;;;;;;;6285150;28;19927;-70
2023/06/27 05:31:15;;;;;;;;;;;;;;;;;;6306924;28;19920;-72
2023/06/27 05:34:15;;;;;;;;;;;;;;;;;;6293725;28;19916;-71
2023/06/27 05:37:16;;;;;;;;;;;;;;;;;;6312538;28;19913;-70
2023/06/27 05:40:16;;;;;;;;;;;;;;;;;;6292874;28;19915;-68
2023/06/27 05:43:16;;;;;;;;;;;;;;;;;;6291893;28;19957;-67
2023/06/27 05:46:16;;;;;;;;;;;;;;;;;;6305719;28;19916;-65
2023/06/27 05:49:17;;;;;;;;;;;;;;;;;;6303160;28;20241;-66
2023/06/27 05:52:17;;;;;;;;;;;;;;;;;;6299877;28;20033;-65
2023/06/27 05:55:17;;;;;;;;;;;;;;;;;;6301469;28;20147;-65
2023/06/27 05:58:17;;;;;;;;;;;;;;;;;;6301924;28;20308;-66
2023/06/27 06:01:17;;;;;;;;;;;;;;;;;;6303947;28;21418;-65
2023/06/27 06:04:17;;;;;;;;;;;;;;;;;;6304490;28;19916;-71
2023/06/27 06:07:17;;;;;;;;;;;;;;;;;;6305783;28;19974;-70
2023/06/27 06:10:18;;;;;;;;;;;;;;;;;;5943887;28;10000047;-70
2023/06/27 06:13:19;;;;;;;;;;;;;;;;;;6296116;28;19912;-71
2023/06/27 06:16:19;;;;;;;;;;;;;;;;;;6295334;28;19986;-71
2023/06/27 06:19:19;;;;;;;;;;;;;;;;;;6298853;28;19919;-72
2023/06/27 06:22:19;;;;;;;;;;;;;;;;;;6310872;28;20002;-72
2023/06/27 06:25:20;;;;;;;;;;;;;;;;;;6316126;28;19912;-71
2023/06/27 06:28:20;;;;;;;;;;;;;;;;;;6309967;28;19998;-71
2023/06/27 06:31:21;;;;;;;;;;;;;;;;;;6311499;28;20411;-71
2023/06/27 06:34:21;;;;;;;;;;;;;;;;;;6297988;28;20015;-71
2023/06/27 06:37:21;;;;;;;;;;;;;;;;;;6315086;28;19992;-71
2023/06/27 06:40:24;;;;;;;;;;;;;;;;;;6311236;28;19908;-70
2023/06/27 06:43:25;;;;;;;;;;;;;;;;;;6289896;28;20241;-70
2023/06/27 06:46:25;;;;;;;;;;;;;;;;;;6318014;28;19919;-70
2023/06/27 06:49:25;;;;;;;;;;;;;;;;;;6317469;28;19916;-71
2023/06/27 06:52:27;;;;;;;;;;;;;;;;;;6297861;28;19966;-70
2023/06/27 06:55:27;;;;;;;;;;;;;;;;;;6299686;28;19908;-70
2023/06/27 06:58:27;;;;;;;;;;;;;;;;;;6319124;28;19962;-70
2023/06/27 07:01:28;;;;;;;;;;;;;;;;;;6315431;28;19953;-69
2023/06/27 07:04:28;;;;;;;;;;;;;;;;;;6307599;28;20005;-72
2023/06/27 07:07:29;;;;;;;;;;;;;;;;;;6317455;28;19922;-69
2023/06/27 07:10:29;;;;;;;;;;;;;;;;;;6316658;28;19963;-71
2023/06/27 07:13:29;;;;;;;;;;;;;;;;;;6309097;28;20006;-70
2023/06/27 07:16:29;;;;;;;;;;;;;;;;;;6291562;28;19920;-71
2023/06/27 07:19:29;;;;;;;;;;;;;;;;;;6315641;28;19916;-70
2023/06/27 07:22:29;;;;;;;;;;;;;;;;;;6292772;28;19931;-71
2023/06/27 07:25:30;;;;;;;;;;;;;;;;;;6309314;28;19919;-71
2023/06/27 07:28:30;;;;;;;;;;;;;;;;;;6297084;28;19927;-72
2023/06/27 07:31:30;;;;;;;;;;;;;;;;;;6306052;28;19912;-71
2023/06/27 07:34:30;;;;;;;;;;;;;;;;;;6311891;28;20535;-69
2023/06/27 07:37:30;;;;;;;;;;;;;;;;;;6294521;28;19924;-71
2023/06/27 07:40:31;;;;;;;;;;;;;;;;;;6308751;28;20289;-69
2023/06/27 07:43:31;;;;;;;;;;;;;;;;;;6297125;28;19912;-74
2023/06/27 07:46:31;;;;;;;;;;;;;;;;;;6309451;28;19981;-73
2023/06/27 07:49:33;;;;;;;;;;;;;;;;;;6312636;28;20343;-72
2023/06/27 07:52:34;;;;;;;;;;;;;;;;;;6316013;28;19942;-72
2023/06/27 07:55:34;;;;;;;;;;;;;;;;;;6318686;28;20006;-72
2023/06/27 07:58:35;;;;;;;;;;;;;;;;;;6297956;28;19976;-72
2023/06/27 08:01:35;;;;;;;;;;;;;;;;;;6311001;28;19908;-71
2023/06/27 08:04:36;;;;;;;;;;;;;;;;;;6309039;28;19920;-72
2023/06/27 08:07:36;;;;;;;;;;;;;;;;;;6288669;28;19927;-71
2023/06/27 08:10:36;;;;;;;;;;;;;;;;;;6300464;28;20357;-74
2023/06/27 08:13:41;;;;;;;;;;;;;;;;;;6314602;28;19916;-72
2023/06/27 08:16:41;;;;;;;;;;;;;;;;;;6301512;28;19909;-72
2023/06/27 08:19:41;;;;;;;;;;;;;;;;;;6327436;28;19919;-72
2023/06/27 08:22:41;;;;;;;;;;;;;;;;;;6328854;28;19919;-72
2023/06/27 08:25:41;;;;;;;;;;;;;;;;;;6317732;28;19912;-72
2023/06/27 08:28:42;;;;;;;;;;;;;;;;;;6321198;28;20416;-73
2023/06/27 08:31:42;;;;;;;;;;;;;;;;;;6329976;28;19915;-72
2023/06/27 08:34:42;;;;;;;;;;;;;;;;;;6331362;28;19908;-72
2023/06/27 08:37:42;;;;;;;;;;;;;;;;;;6309593;28;20437;-72
2023/06/27 08:40:43;;;;;;;;;;;;;;;;;;6325648;28;20292;-71
2023/06/27 08:43:43;;;;;;;;;;;;;;;;;;6321099;28;20242;-71
2023/06/27 08:46:44;;;;;;;;;;;;;;;;;;6303908;28;20365;-72
2023/06/27 08:49:44;;;;;;;;;;;;;;;;;;6320569;28;19923;-72
2023/06/27 08:52:45;;;;;;;;;;;;;;;;;;6323237;28;19956;-71
2023/06/27 08:55:45;;;;;;;;;;;;;;;;;;6311244;28;19969;-71
2023/06/27 08:58:45;;;;;;;;;;;;;;;;;;6311459;28;19967;-71
2023/06/27 09:01:45;;;;;;;;;;;;;;;;;;6307612;28;19938;-71
2023/06/27 09:04:46;;;;;;;;;;;;;;;;;;6317611;28;19912;-72
2023/06/27 09:07:46;;;;;;;;;;;;;;;;;;6324194;28;19915;-71
2023/06/27 09:10:46;;;;;;;;;;;;;;;;;;6319467;28;19973;-71
2023/06/27 09:13:46;;;;;;;;;;;;;;;;;;6321516;28;19923;-71
2023/06/27 09:16:47;;;;;;;;;;;;;;;;;;6321452;28;19912;-72
2023/06/27 09:19:47;;;;;;;;;;;;;;;;;;6292513;28;19916;-72
2023/06/27 09:22:47;;;;;;;;;;;;;;;;;;6316539;28;19912;-72
2023/06/27 09:25:47;;;;;;;;;;;;;;;;;;6317534;28;19912;-72
2023/06/27 09:28:47;;;;;;;;;;;;;;;;;;6324019;28;19922;-72
2023/06/27 09:31:48;;;;;;;;;;;;;;;;;;6309187;28;19916;-72
2023/06/27 09:34:48;;;;;;;;;;;;;;;;;;6303806;28;19934;-71
2023/06/27 09:37:48;;;;;;;;;;;;;;;;;;6322852;28;19919;-73
2023/06/27 09:40:49;;;;;;;;;;;;;;;;;;6331663;28;20015;-72
2023/06/27 09:43:49;;;;;;;;;;;;;;;;;;6319836;28;19984;-73
2023/06/27 09:46:49;;;;;;;;;;;;;;;;;;6323716;28;20011;-73
2023/06/27 09:49:49;;;;;;;;;;;;;;;;;;6330072;28;19990;-72
2023/06/27 09:52:49;;;;;;;;;;;;;;;;;;6327043;28;19912;-72
2023/06/27 09:55:49;;;;;;;;;;;;;;;;;;6311572;28;19916;-73
2023/06/27 09:58:52;;;;;;;;;;;;;;;;;;6333800;28;20093;-73
2023/06/27 10:01:55;;;;;;;;;;;;;;;;;;6308850;28;19915;-73
2023/06/27 10:04:55;;;;;;;;;;;;;;;;;;6293227;28;19920;-73
2023/06/27 10:07:55;;;;;;;;;;;;;;;;;;6320621;28;19928;-74
2023/06/27 10:10:57;;;;;;;;;;;;;;;;;;6303064;28;20309;-71
2023/06/27 10:13:57;;;;;;;;;;;;;;;;;;6319675;28;19961;-73
2023/06/27 10:16:57;;;;;;;;;;;;;;;;;;6320955;28;19961;-72
2023/06/27 10:19:57;;;;;;;;;;;;;;;;;;6317570;28;19951;-72
2023/06/27 10:22:58;;;;;;;;;;;;;;;;;;6316267;28;19931;-73
2023/06/27 10:25:58;;;;;;;;;;;;;;;;;;6321300;28;19932;-73
2023/06/27 10:28:58;;;;;;;;;;;;;;;;;;6320015;28;19963;-74
2023/06/27 10:31:58;;;;;;;;;;;;;;;;;;6318867;28;19912;-71
2023/06/27 10:34:58;;;;;;;;;;;;;;;;;;6312951;28;19938;-71
2023/06/27 10:37:58;;;;;;;;;;;;;;;;;;6309667;28;19920;-73
2023/06/27 10:40:59;;;;;;;;;;;;;;;;;;6289074;28;19912;-74
2023/06/27 10:43:59;;;;;;;;;;;;;;;;;;6291877;28;19912;-73
2023/06/27 10:46:59;;;;;;;;;;;;;;;;;;6305037;28;19935;-73
2023/06/27 10:49:59;;;;;;;;;;;;;;;;;;6303234;28;20031;-75
2023/06/27 10:53:00;;;;;;;;;;;;;;;;;;6290380;28;19931;-73
2023/06/27 10:56:00;;;;;;;;;;;;;;;;;;6313740;28;19920;-72
2023/06/27 10:59:00;;;;;;;;;;;;;;;;;;6296724;28;19916;-74
2023/06/27 11:02:00;;;;;;;;;;;;;;;;;;6299439;28;19908;-72
2023/06/27 11:05:00;;;;;;;;;;;;;;;;;;6291686;28;19988;-73
2023/06/27 11:08:01;;;;;;;;;;;;;;;;;;6297766;28;19908;-73
2023/06/27 11:11:02;;;;;;;;;;;;;;;;;;6311603;28;20393;-72
2023/06/27 11:14:02;;;;;;;;;;;;;;;;;;6312430;28;19916;-70
2023/06/27 11:17:03;;;;;;;;;;;;;;;;;;6299996;28;20022;-72
2023/06/27 11:20:03;;;;;;;;;;;;;;;;;;6303610;28;20385;-71
2023/06/27 11:23:04;;;;;;;;;;;;;;;;;;6309543;28;19945;-71
2023/06/27 11:26:04;;;;;;;;;;;;;;;;;;6299928;28;19994;-71
2023/06/27 11:29:04;;;;;;;;;;;;;;;;;;6316957;28;19916;-71
2023/06/27 11:32:05;;;;;;;;;;;;;;;;;;6313310;28;20020;-75
2023/06/27 11:35:05;;;;;;;;;;;;;;;;;;6297951;28;19986;-72
2023/06/27 11:38:05;;;;;;;;;;;;;;;;;;6286686;28;19939;-72
2023/06/27 11:41:05;;;;;;;;;;;;;;;;;;6297743;28;20265;-71
2023/06/27 11:44:05;;;;;;;;;;;;;;;;;;6308083;28;20247;-71
2023/06/27 11:47:06;;;;;;;;;;;;;;;;;;6310904;28;20010;-71
2023/06/27 11:50:06;;;;;;;;;;;;;;;;;;6295108;28;20273;-72
2023/06/27 11:53:06;;;;;;;;;;;;;;;;;;6295837;28;19908;-72
2023/06/27 11:56:08;;;;;;;;;;;;;;;;;;6297729;28;19928;-72
2023/06/27 11:59:08;;;;;;;;;;;;;;;;;;6315098;28;19993;-72
2023/06/27 12:02:08;;;;;;;;;;;;;;;;;;6289344;28;19925;-72
2023/06/27 12:05:08;;;;;;;;;;;;;;;;;;6302494;28;19926;-72
2023/06/27 12:08:09;;;;;;;;;;;;;;;;;;6311206;28;20003;-71
2023/06/27 12:11:09;;;;;;;;;;;;;;;;;;6310509;28;19916;-72
2023/06/27 12:14:09;;;;;;;;;;;;;;;;;;6302511;28;20268;-72
2023/06/27 12:17:10;;;;;;;;;;;;;;;;;;6297408;28;19966;-72
2023/06/27 12:20:10;;;;;;;;;;;;;;;;;;6310150;28;19934;-72
2023/06/27 12:23:10;;;;;;;;;;;;;;;;;;6289886;28;20377;-72
2023/06/27 12:26:10;;;;;;;;;;;;;;;;;;6308876;28;19908;-70
2023/06/27 12:29:10;;;;;;;;;;;;;;;;;;6320211;28;19917;-70
2023/06/27 12:32:10;;;;;;;;;;;;;;;;;;6308701;28;19923;-72
2023/06/27 12:35:17;;;;;;;;;;;;;;;;;;6306264;28;19920;-72
2023/06/27 12:38:17;;;;;;;;;;;;;;;;;;6315120;28;20003;-71
2023/06/27 12:41:18;;;;;;;;;;;;;;;;;;6312789;28;19912;-70
2023/06/27 12:44:18;;;;;;;;;;;;;;;;;;6302172;28;19978;-72
2023/06/27 12:47:18;;;;;;;;;;;;;;;;;;6308122;28;19981;-73
2023/06/27 12:50:18;;;;;;;;;;;;;;;;;;6308258;28;20184;-71
2023/06/27 12:53:18;;;;;;;;;;;;;;;;;;6314582;28;20326;-71
2023/06/27 12:56:18;;;;;;;;;;;;;;;;;;6308296;28;19924;-71
2023/06/27 12:59:26;;;;;;;;;;;;;;;;;;6294025;28;19928;-71
2023/06/27 13:02:26;;;;;;;;;;;;;;;;;;6316516;28;20433;-71
2023/06/27 13:05:26;;;;;;;;;;;;;;;;;;6292857;28;20368;-70
2023/06/27 13:08:26;;;;;;;;;;;;;;;;;;6297806;28;20186;-71
2023/06/27 13:11:26;;;;;;;;;;;;;;;;;;6315306;28;19932;-72
2023/06/27 13:14:27;;;;;;;;;;;;;;;;;;6316671;28;19912;-72
2023/06/27 13:17:27;;;;;;;;;;;;;;;;;;6321712;28;19957;-72
2023/06/27 13:20:27;;;;;;;;;;;;;;;;;;6319137;28;19912;-72
2023/06/27 13:23:27;;;;;;;;;;;;;;;;;;6305421;28;19916;-71
2023/06/27 13:26:29;;;;;;;;;;;;;;;;;;6317156;28;19985;-72
2023/06/27 13:29:29;;;;;;;;;;;;;;;;;;6322468;28;19930;-70
2023/06/27 13:32:31;;;;;;;;;;;;;;;;;;6287948;28;19916;-67
2023/06/27 13:35:31;;;;;;;;;;;;;;;;;;6296644;28;19918;-68
2023/06/27 13:38:31;;;;;;;;;;;;;;;;;;6309771;28;20002;-67
2023/06/27 13:41:31;;;;;;;;;;;;;;;;;;6308427;28;19912;-67
2023/06/27 13:44:31;;;;;;;;;;;;;;;;;;6300095;28;19912;-70
2023/06/27 13:47:32;;;;;;;;;;;;;;;;;;6307703;28;19923;-70
2023/06/27 13:50:32;;;;;;;;;;;;;;;;;;6288896;28;19927;-70
2023/06/27 13:53:33;;;;;;;;;;;;;;;;;;6315214;28;19955;-69
2023/06/27 13:56:33;;;;;;;;;;;;;;;;;;6297385;28;20351;-68
2023/06/27 13:59:33;;;;;;;;;;;;;;;;;;6317182;28;19916;-68
2023/06/27 14:02:34;;;;;;;;;;;;;;;;;;6305497;28;20359;-69
2023/06/27 14:05:34;;;;;;;;;;;;;;;;;;6306792;28;19909;-68
2023/06/27 14:08:34;;;;;;;;;;;;;;;;;;6316559;28;19920;-68
2023/06/27 14:11:34;;;;;;;;;;;;;;;;;;6305432;28;19918;-68
2023/06/27 14:14:34;;;;;;;;;;;;;;;;;;6311006;28;19947;-68
2023/06/27 14:17:35;;;;;;;;;;;;;;;;;;6311603;28;19916;-68
2023/06/27 14:20:35;;;;;;;;;;;;;;;;;;6313898;28;19939;-67
2023/06/27 14:23:35;;;;;;;;;;;;;;;;;;6311329;28;19973;-67
2023/06/27 14:26:35;;;;;;;;;;;;;;;;;;6304239;28;19916;-69
2023/06/27 14:29:36;;;;;;;;;;;;;;;;;;6310519;28;20672;-69
2023/06/27 14:32:36;;;;;;;;;;;;;;;;;;6321855;28;19919;-67
2023/06/27 14:35:36;;;;;;;;;;;;;;;;;;6293129;28;19915;-68
2023/06/27 14:38:36;;;;;;;;;;;;;;;;;;6310566;28;20306;-70
2023/06/27 14:41:37;;;;;;;;;;;;;;;;;;6315150;28;20461;-69
2023/06/27 14:44:37;;;;;;;;;;;;;;;;;;6295044;28;19992;-67
2023/06/27 14:47:37;;;;;;;;;;;;;;;;;;6309024;28;19912;-66
2023/06/27 14:50:37;;;;;;;;;;;;;;;;;;6306123;28;20007;-69
2023/06/27 14:53:37;;;;;;;;;;;;;;;;;;6310062;28;19991;-69
2023/06/27 14:56:37;;;;;;;;;;;;;;;;;;6303551;28;19916;-68
2023/06/27 14:59:37;;;;;;;;;;;;;;;;;;6302928;28;19939;-68
2023/06/27 15:02:37;;;;;;;;;;;;;;;;;;6318317;28;19927;-68
2023/06/27 15:05:38;;;;;;;;;;;;;;;;;;6311266;28;20380;-69
2023/06/27 15:08:38;;;;;;;;;;;;;;;;;;6310574;28;19935;-70
2023/06/27 15:11:38;;;;;;;;;;;;;;;;;;6310465;28;19923;-70
2023/06/27 15:14:38;;;;;;;;;;;;;;;;;;6306436;28;19920;-70
2023/06/27 15:17:38;;;;;;;;;;;;;;;;;;5962782;28;10000287;-71
2023/06/27 15:20:38;;;;;;;;;;;;;;;;;;6302293;28;19920;-70
2023/06/27 15:23:38;;;;;;;;;;;;;;;;;;6306043;28;19923;-71
2023/06/27 15:26:39;;;;;;;;;;;;;;;;;;6300556;28;19995;-70
2023/06/27 15:29:39;;;;;;;;;;;;;;;;;;6300909;28;19945;-68
2023/06/27 15:32:39;;;;;;;;;;;;;;;;;;6309782;28;19908;-68
2023/06/27 15:35:39;;;;;;;;;;;;;;;;;;6309347;28;19919;-69
2023/06/27 15:38:39;;;;;;;;;;;;;;;;;;6309042;28;19912;-70
2023/06/27 15:41:39;;;;;;;;;;;;;;;;;;6307962;28;19912;-69
2023/06/27 15:44:39;;;;;;;;;;;;;;;;;;6315934;28;20399;-70
2023/06/27 15:47:40;;;;;;;;;;;;;;;;;;6302144;28;19908;-70
2023/06/27 15:50:40;;;;;;;;;;;;;;;;;;6301642;28;19923;-69
2023/06/27 15:53:40;;;;;;;;;;;;;;;;;;6295888;28;20300;-69
2023/06/27 15:56:40;;;;;;;;;;;;;;;;;;6303011;28;19957;-69
2023/06/27 15:59:41;;;;;;;;;;;;;;;;;;6284118;28;19909;-69
2023/06/27 16:02:41;;;;;;;;;;;;;;;;;;6316626;28;19919;-68
2023/06/27 16:05:41;;;;;;;;;;;;;;;;;;6315868;28;19912;-69
2023/06/27 16:08:41;;;;;;;;;;;;;;;;;;6316524;28;19912;-71
2023/06/27 16:11:41;;;;;;;;;;;;;;;;;;6294419;28;19913;-69
2023/06/27 16:14:41;;;;;;;;;;;;;;;;;;6307119;28;19953;-71
2023/06/27 16:17:41;;;;;;;;;;;;;;;;;;6301216;28;19913;-71
2023/06/27 16:20:46;;;;;;;;;;;;;;;;;;6307859;28;20013;-70
2023/06/27 16:23:46;;;;;;;;;;;;;;;;;;6309512;28;20339;-69
2023/06/27 16:26:46;;;;;;;;;;;;;;;;;;6317110;28;19965;-68
2023/06/27 16:29:47;;;;;;;;;;;;;;;;;;6302389;28;19916;-67
2023/06/27 16:32:47;;;;;;;;;;;;;;;;;;6315507;28;19912;-67
2023/06/27 16:35:47;;;;;;;;;;;;;;;;;;5961240;28;9999954;-67
2023/06/27 16:38:47;;;;;;;;;;;;;;;;;;6309730;28;20397;-67
2023/06/27 16:41:47;;;;;;;;;;;;;;;;;;6303666;28;19916;-66
2023/06/27 16:44:47;;;;;;;;;;;;;;;;;;6318148;28;19911;-67
2023/06/27 16:47:47;;;;;;;;;;;;;;;;;;6302750;28;19913;-68
2023/06/27 16:50:47;;;;;;;;;;;;;;;;;;6317991;28;19973;-70
2023/06/27 16:53:48;;;;;;;;;;;;;;;;;;6317877;28;20160;-70
2023/06/27 16:56:48;;;;;;;;;;;;;;;;;;6312547;28;19935;-70
2023/06/27 16:59:48;;;;;;;;;;;;;;;;;;6292356;28;19923;-70
2023/06/27 17:02:48;;;;;;;;;;;;;;;;;;6285395;28;19939;-71
2023/06/27 17:05:50;;;;;;;;;;;;;;;;;;6306606;28;19916;-69
2023/06/27 17:08:50;;;;;;;;;;;;;;;;;;6301379;28;20021;-70
2023/06/27 17:11:50;;;;;;;;;;;;;;;;;;6305465;28;19911;-71
2023/06/27 17:14:50;;;;;;;;;;;;;;;;;;6302786;28;20203;-70
2023/06/27 17:17:50;;;;;;;;;;;;;;;;;;6306486;28;19934;-71
2023/06/27 17:20:50;;;;;;;;;;;;;;;;;;6299108;28;20198;-71
2023/06/27 17:23:50;;;;;;;;;;;;;;;;;;6281555;28;19916;-70
2023/06/27 17:26:51;;;;;;;;;;;;;;;;;;6302355;28;19912;-70
2023/06/27 17:29:51;;;;;;;;;;;;;;;;;;6299384;28;20373;-70
2023/06/27 17:32:51;;;;;;;;;;;;;;;;;;6300798;28;19912;-71
2023/06/27 17:35:51;;;;;;;;;;;;;;;;;;6299755;28;19912;-71
2023/06/27 17:38:52;;;;;;;;;;;;;;;;;;6282004;28;19969;-68
2023/06/27 17:41:52;;;;;;;;;;;;;;;;;;6305635;28;19916;-71
2023/06/27 17:44:52;;;;;;;;;;;;;;;;;;6303761;28;19926;-70
2023/06/27 17:47:52;;;;;;;;;;;;;;;;;;6286845;28;20101;-71
2023/06/27 17:50:52;;;;;;;;;;;;;;;;;;6306675;28;19936;-70
2023/06/27 17:53:52;;;;;;;;;;;;;;;;;;6321998;28;19916;-71
2023/06/27 17:56:52;;;;;;;;;;;;;;;;;;6307652;28;19910;-69
2023/06/27 17:59:52;;;;;;;;;;;;;;;;;;6303272;28;19924;-69
2023/06/27 18:02:53;;;;;;;;;;;;;;;;;;6301394;28;19916;-70
2023/06/27 18:05:53;;;;;;;;;;;;;;;;;;6302606;28;20407;-70
2023/06/27 18:08:53;;;;;;;;;;;;;;;;;;6304142;28;20252;-71
2023/06/27 18:11:53;;;;;;;;;;;;;;;;;;6303997;28;19916;-71
2023/06/27 18:14:53;;;;;;;;;;;;;;;;;;6299738;28;20376;-69
2023/06/27 18:17:54;;;;;;;;;;;;;;;;;;6299440;28;19916;-71
2023/06/27 18:20:54;;;;;;;;;;;;;;;;;;6309262;28;20121;-70
2023/06/27 18:23:54;;;;;;;;;;;;;;;;;;6300277;28;19916;-70
2023/06/27 18:26:54;;;;;;;;;;;;;;;;;;6303318;28;19951;-70
2023/06/27 18:29:54;;;;;;;;;;;;;;;;;;6298843;28;19930;-71
2023/06/27 18:32:55;;;;;;;;;;;;;;;;;;6287273;28;20354;-69
2023/06/27 18:35:57;;;;;;;;;;;;;;;;;;6284973;28;19920;-70
2023/06/27 18:38:59;;;;;;;;;;;;;;;;;;6277586;28;19920;-69
2023/06/27 18:41:59;;;;;;;;;;;;;;;;;;6307095;28;19920;-71
2023/06/27 18:45:00;;;;;;;;;;;;;;;;;;6300059;28;20429;-68
2023/06/27 18:48:00;;;;;;;;;;;;;;;;;;6301445;28;20569;-69
2023/06/27 18:51:00;;;;;;;;;;;;;;;;;;6304391;28;19919;-69
2023/06/27 18:54:00;;;;;;;;;;;;;;;;;;6301044;28;19955;-67
2023/06/27 18:57:00;;;;;;;;;;;;;;;;;;6302401;28;20478;-69
2023/06/27 19:00:00;;;;;;;;;;;;;;;;;;6302132;28;19917;-70
2023/06/27 19:03:00;;;;;;;;;;;;;;;;;;6297971;28;19920;-69
2023/06/27 19:06:00;;;;;;;;;;;;;;;;;;6295979;28;20012;-69
2023/06/27 19:09:00;;;;;;;;;;;;;;;;;;6279863;28;20286;-70
2023/06/27 19:12:01;;;;;;;;;;;;;;;;;;6306705;28;19927;-69
2023/06/27 19:15:01;;;;;;;;;;;;;;;;;;6302256;28;19969;-71
2023/06/27 19:18:02;;;;;;;;;;;;;;;;;;6299931;28;20015;-67
2023/06/27 19:21:02;;;;;;;;;;;;;;;;;;6312620;28;19916;-70
2023/06/27 19:24:03;;;;;;;;;;;;;;;;;;6291089;28;19916;-70
2023/06/27 19:27:03;;;;;;;;;;;;;;;;;;6288768;28;19923;-70
2023/06/27 19:30:04;;;;;;;;;;;;;;;;;;6286078;28;19920;-70
2023/06/27 19:33:04;;;;;;;;;;;;;;;;;;6283556;28;19923;-68
2023/06/27 19:36:05;;;;;;;;;;;;;;;;;;6299738;28;19916;-69
2023/06/27 19:39:05;;;;;;;;;;;;;;;;;;6302497;28;19916;-68
2023/06/27 19:42:06;;;;;;;;;;;;;;;;;;6295555;28;19927;-66
2023/06/27 19:45:06;;;;;;;;;;;;;;;;;;6308664;28;19950;-68
2023/06/27 19:48:06;;;;;;;;;;;;;;;;;;6284550;28;20778;-68
2023/06/27 19:51:10;;;;;;;;;;;;;;;;;;6300136;28;20034;-69
2023/06/27 19:54:10;;;;;;;;;;;;;;;;;;6302153;28;20006;-69
2023/06/27 19:57:11;;;;;;;;;;;;;;;;;;6307181;28;20395;-69
2023/06/27 20:00:11;;;;;;;;;;;;;;;;;;6284308;28;19941;-68
2023/06/27 20:03:11;;;;;;;;;;;;;;;;;;6306058;28;19971;-69
2023/06/27 20:06:11;;;;;;;;;;;;;;;;;;6299285;28;21737;-68
2023/06/27 20:09:12;;;;;;;;;;;;;;;;;;6300732;28;20069;-68
2023/06/27 20:12:12;;;;;;;;;;;;;;;;;;6303376;28;19924;-70
2023/06/27 20:15:15;;;;;;;;;;;;;;;;;;6300772;28;19931;-70
2023/06/27 20:18:16;;;;;;;;;;;;;;;;;;6293288;28;19916;-69
2023/06/27 20:21:16;;;;;;;;;;;;;;;;;;6308832;28;19931;-68
2023/06/27 20:24:17;;;;;;;;;;;;;;;;;;6299361;28;19959;-70
2023/06/27 20:27:17;;;;;;;;;;;;;;;;;;6312436;28;19927;-67
2023/06/27 20:30:18;;;;;;;;;;;;;;;;;;6309829;28;20038;-69